createdAt,value
2019-05-11T00:00:22.892Z,10.31
2019-05-11T00:02:22.842Z,10.31
2019-05-11T00:04:22.851Z,10.19
2019-05-11T00:06:22.852Z,10.06
2019-05-11T00:08:22.833Z,10.13
2019-05-11T00:10:23.582Z,10.13
2019-05-11T00:12:22.837Z,10.13
2019-05-11T00:13:39.890Z,10.13
2019-05-11T00:14:22.848Z,10.06
2019-05-11T00:16:22.828Z,10.13
2019-05-11T00:18:22.857Z,10.19
2019-05-11T00:20:22.909Z,10.06
2019-05-11T00:22:22.823Z,10.06
2019-05-11T00:24:22.851Z,10
2019-05-11T00:26:22.846Z,9.88
2019-05-11T00:28:22.842Z,9.94
2019-05-11T00:28:39.991Z,9.88
2019-05-11T00:30:22.950Z,9.81
2019-05-11T00:32:23.114Z,9.81
2019-05-11T00:34:23.788Z,9.88
2019-05-11T00:36:22.848Z,9.81
2019-05-11T00:38:22.830Z,9.81
2019-05-11T00:40:25.491Z,9.75
2019-05-11T00:42:22.841Z,9.75
2019-05-11T00:43:40.034Z,9.81
2019-05-11T00:44:23.715Z,9.81
2019-05-11T00:46:22.896Z,9.69
2019-05-11T00:48:22.792Z,9.75
2019-05-11T00:50:37.838Z,9.75
2019-05-11T00:52:22.844Z,9.75
2019-05-11T00:54:22.837Z,9.75
2019-05-11T00:56:24.607Z,9.75
2019-05-11T00:58:22.837Z,9.69
2019-05-11T00:58:39.851Z,9.69
2019-05-11T01:00:22.845Z,9.69
2019-05-11T01:02:22.833Z,9.69
2019-05-11T01:04:22.850Z,9.69
2019-05-11T01:06:22.775Z,9.69
2019-05-11T01:08:22.975Z,9.69
2019-05-11T01:10:25.374Z,9.63
2019-05-11T01:12:22.889Z,9.56
2019-05-11T01:13:39.898Z,9.63
2019-05-11T01:14:22.858Z,9.63
2019-05-11T01:16:22.799Z,9.56
2019-05-11T01:18:22.850Z,9.63
2019-05-11T01:20:22.929Z,9.63
2019-05-11T01:22:22.841Z,9.56
2019-05-11T01:24:22.843Z,9.56
2019-05-11T01:26:22.844Z,9.5
2019-05-11T01:28:22.860Z,9.5
2019-05-11T01:28:39.907Z,9.5
2019-05-11T01:30:22.843Z,9.5
2019-05-11T01:32:22.853Z,9.5
2019-05-11T01:34:22.832Z,9.38
2019-05-11T01:36:23.739Z,9.44
2019-05-11T01:38:22.766Z,9.38
2019-05-11T01:40:22.867Z,9.44
2019-05-11T01:42:22.840Z,9.44
2019-05-11T01:43:39.887Z,9.38
2019-05-11T01:44:22.847Z,9.38
2019-05-11T01:46:22.852Z,9.38
2019-05-11T01:48:22.837Z,9.31
2019-05-11T01:50:22.848Z,9.31
2019-05-11T01:52:23.703Z,9.25
2019-05-11T01:54:22.848Z,9.31
2019-05-11T01:56:22.896Z,9.25
2019-05-11T01:58:22.957Z,9.25
2019-05-11T01:58:39.822Z,9.25
2019-05-11T02:00:22.799Z,9.25
2019-05-11T02:02:22.846Z,9.13
2019-05-11T02:04:22.811Z,9.13
2019-05-11T02:06:22.837Z,9.13
2019-05-11T02:08:22.828Z,9.19
2019-05-11T02:10:22.938Z,9.13
2019-05-11T02:12:22.831Z,9.13
2019-05-11T02:13:39.894Z,9.06
2019-05-11T02:14:22.856Z,9.06
2019-05-11T02:16:22.834Z,9.06
2019-05-11T02:18:22.843Z,9.06
2019-05-11T02:20:22.800Z,9.06
2019-05-11T02:22:22.845Z,9.06
2019-05-11T02:24:22.874Z,9
2019-05-11T02:26:22.829Z,9.06
2019-05-11T02:28:22.825Z,9
2019-05-11T02:28:39.867Z,9
2019-05-11T02:30:22.863Z,8.88
2019-05-11T02:32:22.832Z,8.88
2019-05-11T02:34:22.806Z,8.88
2019-05-11T02:36:22.833Z,8.81
2019-05-11T02:38:22.836Z,8.81
2019-05-11T02:40:22.830Z,8.75
2019-05-11T02:42:22.859Z,8.75
2019-05-11T02:43:39.897Z,8.75
2019-05-11T02:44:22.847Z,8.75
2019-05-11T02:46:22.850Z,8.75
2019-05-11T02:48:25.762Z,8.75
2019-05-11T02:50:23.784Z,8.75
2019-05-11T02:52:22.906Z,8.75
2019-05-11T02:54:22.854Z,8.75
2019-05-11T02:56:22.967Z,8.69
2019-05-11T02:58:22.855Z,8.81
2019-05-11T02:58:39.851Z,8.75
2019-05-11T03:00:22.896Z,8.69
2019-05-11T03:02:22.829Z,8.75
2019-05-11T03:04:22.844Z,8.75
2019-05-11T03:06:22.844Z,8.75
2019-05-11T03:08:22.841Z,8.81
2019-05-11T03:10:22.865Z,8.75
2019-05-11T03:12:22.853Z,8.75
2019-05-11T03:13:39.840Z,8.69
2019-05-11T03:14:24.607Z,8.69
2019-05-11T03:16:22.841Z,8.69
2019-05-11T03:18:23.707Z,8.63
2019-05-11T03:20:22.850Z,8.63
2019-05-11T03:22:22.793Z,8.56
2019-05-11T03:24:24.194Z,8.5
2019-05-11T03:26:22.848Z,8.56
2019-05-11T03:28:24.609Z,8.5
2019-05-11T03:28:39.859Z,8.5
2019-05-11T03:30:22.881Z,8.5
2019-05-11T03:32:22.847Z,8.44
2019-05-11T03:34:22.811Z,8.44
2019-05-11T03:36:22.866Z,8.38
2019-05-11T03:38:22.840Z,8.38
2019-05-11T03:40:22.803Z,8.31
2019-05-11T03:42:22.844Z,8.38
2019-05-11T03:43:39.864Z,8.38
2019-05-11T03:44:23.712Z,8.38
2019-05-11T03:46:22.841Z,8.31
2019-05-11T03:48:22.856Z,8.31
2019-05-11T03:50:23.676Z,8.31
2019-05-11T03:52:22.838Z,8.25
2019-05-11T03:54:22.842Z,8.31
2019-05-11T03:56:22.810Z,8.31
2019-05-11T03:58:26.030Z,8.31
2019-05-11T03:58:39.908Z,8.31
2019-05-11T04:00:22.844Z,8.38
2019-05-11T04:02:22.858Z,8.38
2019-05-11T04:04:22.848Z,8.38
2019-05-11T04:06:22.850Z,8.38
2019-05-11T04:08:22.843Z,8.31
2019-05-11T04:10:25.271Z,8.25
2019-05-11T04:12:33.782Z,8.44
2019-05-11T04:13:39.878Z,8.38
2019-05-11T04:14:22.847Z,8.38
2019-05-11T04:16:23.727Z,8.38
2019-05-11T04:18:22.843Z,8.31
2019-05-11T04:20:23.728Z,8.38
2019-05-11T04:22:22.840Z,8.31
2019-05-11T04:24:22.832Z,8.31
2019-05-11T04:26:22.848Z,8.31
2019-05-11T04:28:24.606Z,8.31
2019-05-11T04:28:39.871Z,8.31
2019-05-11T04:30:22.844Z,8.31
2019-05-11T04:32:22.844Z,8.31
2019-05-11T04:34:22.845Z,8.25
2019-05-11T04:36:22.879Z,8.25
2019-05-11T04:38:22.846Z,8.25
2019-05-11T04:40:22.958Z,8.25
2019-05-11T04:42:22.804Z,8.25
2019-05-11T04:43:39.897Z,8.19
2019-05-11T04:44:22.838Z,8.19
2019-05-11T04:46:22.833Z,8.19
2019-05-11T04:48:22.842Z,8.19
2019-05-11T04:50:22.841Z,8.25
2019-05-11T04:52:22.854Z,8.19
2019-05-11T04:54:22.852Z,8.19
2019-05-11T04:56:22.846Z,8.19
2019-05-11T04:58:23.802Z,8.13
2019-05-11T04:58:40.737Z,8.19
2019-05-11T05:00:22.844Z,8.13
2019-05-11T05:02:25.522Z,8.13
2019-05-11T05:04:22.844Z,8.19
2019-05-11T05:06:24.297Z,8.06
2019-05-11T05:08:26.357Z,8.13
2019-05-11T05:10:22.843Z,8.13
2019-05-11T05:12:22.847Z,8.13
2019-05-11T05:13:39.870Z,8.13
2019-05-11T05:14:22.798Z,8.19
2019-05-11T05:16:24.610Z,8.19
2019-05-11T05:18:22.883Z,8.13
2019-05-11T05:20:22.849Z,8.19
2019-05-11T05:22:22.871Z,8.25
2019-05-11T05:24:22.846Z,8.25
2019-05-11T05:26:22.936Z,8.25
2019-05-11T05:28:22.840Z,8.31
2019-05-11T05:28:39.873Z,8.25
2019-05-11T05:30:22.844Z,8.31
2019-05-11T05:32:22.845Z,8.31
2019-05-11T05:34:22.819Z,8.44
2019-05-11T05:36:22.819Z,8.5
2019-05-11T05:38:22.894Z,8.56
2019-05-11T05:40:22.843Z,8.63
2019-05-11T05:42:23.825Z,8.69
2019-05-11T05:43:39.889Z,8.63
2019-05-11T05:44:22.844Z,8.63
2019-05-11T05:46:22.849Z,8.56
2019-05-11T05:48:22.765Z,8.63
2019-05-11T05:50:22.849Z,8.69
2019-05-11T05:52:22.840Z,8.69
2019-05-11T05:54:22.845Z,8.69
2019-05-11T05:56:22.853Z,8.75
2019-05-11T05:58:22.881Z,8.75
2019-05-11T05:58:39.894Z,8.75
2019-05-11T06:00:22.846Z,8.81
2019-05-11T06:02:22.857Z,8.81
2019-05-11T06:04:22.767Z,8.88
2019-05-11T06:06:22.841Z,8.94
2019-05-11T06:08:22.875Z,8.81
2019-05-11T06:10:23.719Z,8.88
2019-05-11T06:12:22.926Z,8.88
2019-05-11T06:13:44.956Z,8.88
2019-05-11T06:14:22.839Z,8.94
2019-05-11T06:16:22.926Z,8.94
2019-05-11T06:18:22.799Z,8.88
2019-05-11T06:20:22.890Z,8.81
2019-05-11T06:22:22.759Z,8.75
2019-05-11T06:24:22.790Z,8.75
2019-05-11T06:26:22.845Z,8.81
2019-05-11T06:28:22.855Z,8.69
2019-05-11T06:28:39.826Z,8.75
2019-05-11T06:30:22.850Z,8.81
2019-05-11T06:32:22.841Z,8.81
2019-05-11T06:34:22.842Z,8.69
2019-05-11T06:36:22.789Z,8.63
2019-05-11T06:38:22.831Z,8.56
2019-05-11T06:40:22.836Z,8.63
2019-05-11T06:42:22.850Z,8.63
2019-05-11T06:43:39.795Z,8.63
2019-05-11T06:44:22.844Z,8.63
2019-05-11T06:46:23.738Z,8.69
2019-05-11T06:48:22.843Z,8.75
2019-05-11T06:50:22.812Z,8.75
2019-05-11T06:52:22.855Z,8.75
2019-05-11T06:54:23.721Z,8.81
2019-05-11T06:56:22.859Z,8.81
2019-05-11T06:58:22.841Z,8.81
2019-05-11T06:58:39.895Z,8.81
2019-05-11T07:00:22.847Z,8.81
2019-05-11T07:02:22.799Z,8.81
2019-05-11T07:04:22.842Z,8.88
2019-05-11T07:06:26.157Z,8.94
2019-05-11T07:08:22.822Z,9
2019-05-11T07:10:22.836Z,9
2019-05-11T07:12:22.756Z,9
2019-05-11T07:13:39.892Z,9
2019-05-11T07:14:22.808Z,9
2019-05-11T07:16:22.848Z,8.94
2019-05-11T07:18:22.851Z,9
2019-05-11T07:20:22.850Z,9
2019-05-11T07:22:22.833Z,9.06
2019-05-11T07:24:22.857Z,9.06
2019-05-11T07:26:22.811Z,9
2019-05-11T07:28:22.855Z,9
2019-05-11T07:28:39.872Z,8.94
2019-05-11T07:30:22.834Z,9
2019-05-11T07:32:25.881Z,9.06
2019-05-11T07:34:22.835Z,9
2019-05-11T07:36:22.842Z,9
2019-05-11T07:38:22.801Z,9
2019-05-11T07:40:22.967Z,9.13
2019-05-11T07:42:22.838Z,9.25
2019-05-11T07:43:39.897Z,9.31
2019-05-11T07:44:34.837Z,9.38
2019-05-11T07:46:22.837Z,9.5
2019-05-11T07:48:22.881Z,9.38
2019-05-11T07:50:22.792Z,9.5
2019-05-11T07:52:22.782Z,9.5
2019-05-11T07:54:23.736Z,9.69
2019-05-11T07:56:22.880Z,9.63
2019-05-11T07:58:22.807Z,9.69
2019-05-11T07:58:39.866Z,9.69
2019-05-11T08:00:22.877Z,9.75
2019-05-11T08:02:22.847Z,9.75
2019-05-11T08:04:22.800Z,9.88
2019-05-11T08:06:22.842Z,9.94
2019-05-11T08:08:25.028Z,9.81
2019-05-11T08:10:22.858Z,9.88
2019-05-11T08:12:22.797Z,9.81
2019-05-11T08:13:39.888Z,9.94
2019-05-11T08:14:22.828Z,9.94
2019-05-11T08:16:22.853Z,10
2019-05-11T08:18:22.848Z,10.06
2019-05-11T08:20:23.727Z,10.13
2019-05-11T08:22:23.719Z,10.13
2019-05-11T08:24:22.840Z,10.13
2019-05-11T08:26:23.721Z,10.19
2019-05-11T08:28:23.723Z,10.25
2019-05-11T08:28:40.698Z,10.25
2019-05-11T08:30:22.843Z,10.19
2019-05-11T08:32:22.857Z,10.13
2019-05-11T08:34:22.848Z,10.25
2019-05-11T08:36:23.745Z,10.31
2019-05-11T08:38:22.851Z,10.25
2019-05-11T08:40:22.799Z,10.31
2019-05-11T08:42:22.851Z,10.38
2019-05-11T08:43:39.834Z,10.44
2019-05-11T08:44:22.806Z,10.5
2019-05-11T08:46:22.805Z,10.5
2019-05-11T08:48:22.866Z,10.56
2019-05-11T08:50:22.855Z,10.63
2019-05-11T08:52:22.847Z,10.63
2019-05-11T08:54:23.770Z,10.63
2019-05-11T08:56:22.842Z,10.81
2019-05-11T08:58:22.858Z,11.06
2019-05-11T08:58:39.784Z,11.06
2019-05-11T09:00:22.847Z,11.19
2019-05-11T09:02:22.852Z,11
2019-05-11T09:04:22.914Z,10.88
2019-05-11T09:06:22.878Z,10.94
2019-05-11T09:08:22.794Z,10.88
2019-05-11T09:10:22.843Z,11.13
2019-05-11T09:12:22.854Z,11.31
2019-05-11T09:13:39.905Z,11.31
2019-05-11T09:14:22.830Z,11.31
2019-05-11T09:16:22.846Z,11.5
2019-05-11T09:18:22.857Z,11.56
2019-05-11T09:20:22.801Z,11.44
2019-05-11T09:22:22.833Z,11.44
2019-05-11T09:24:22.847Z,11.56
2019-05-11T09:26:25.500Z,11.69
2019-05-11T09:28:22.845Z,11.56
2019-05-11T09:28:39.943Z,11.56
2019-05-11T09:30:22.882Z,11.75
2019-05-11T09:32:22.855Z,12
2019-05-11T09:34:23.726Z,12.25
2019-05-11T09:36:22.800Z,12.38
2019-05-11T09:38:22.848Z,12.5
2019-05-11T09:40:23.730Z,12.38
2019-05-11T09:42:22.821Z,11.94
2019-05-11T09:43:39.811Z,11.75
2019-05-11T09:44:22.905Z,11.75
2019-05-11T09:46:22.843Z,11.63
2019-05-11T09:48:22.840Z,11.63
2019-05-11T09:50:22.857Z,11.5
2019-05-11T09:52:22.847Z,11.5
2019-05-11T09:54:22.815Z,11.5
2019-05-11T09:56:22.853Z,11.69
2019-05-11T09:58:22.877Z,11.81
2019-05-11T09:58:39.860Z,11.75
2019-05-11T10:00:22.849Z,11.94
2019-05-11T10:02:23.813Z,11.94
2019-05-11T10:04:22.847Z,11.88
2019-05-11T10:06:24.754Z,11.94
2019-05-11T10:08:22.842Z,11.88
2019-05-11T10:10:22.906Z,12.06
2019-05-11T10:12:22.841Z,12.25
2019-05-11T10:13:39.957Z,12.38
2019-05-11T10:14:22.893Z,12.38
2019-05-11T10:16:22.825Z,12.5
2019-05-11T10:18:24.308Z,12.81
2019-05-11T10:20:24.602Z,12.81
2019-05-11T10:22:23.763Z,12.88
2019-05-11T10:24:22.844Z,13.19
2019-05-11T10:26:22.827Z,13.13
2019-05-11T10:28:22.838Z,13
2019-05-11T10:28:40.741Z,13.06
2019-05-11T10:30:22.794Z,12.81
2019-05-11T10:32:22.849Z,12.5
2019-05-11T10:34:22.837Z,12.63
2019-05-11T10:36:22.884Z,12.88
2019-05-11T10:38:22.836Z,13.13
2019-05-11T10:40:22.870Z,13.31
2019-05-11T10:42:22.845Z,13.38
2019-05-11T10:43:39.845Z,13.5
2019-05-11T10:44:22.829Z,13.44
2019-05-11T10:46:23.396Z,13.38
2019-05-11T10:48:22.842Z,13.25
2019-05-11T10:50:22.882Z,12.94
2019-05-11T10:52:22.815Z,12.94
2019-05-11T10:54:23.653Z,13.06
2019-05-11T10:56:22.846Z,13.13
2019-05-11T10:58:22.860Z,13.13
2019-05-11T10:58:39.819Z,13.13
2019-05-11T11:00:22.835Z,12.94
2019-05-11T11:02:22.822Z,12.75
2019-05-11T11:04:22.849Z,12.63
2019-05-11T11:06:22.838Z,12.75
2019-05-11T11:08:22.837Z,13
2019-05-11T11:10:22.829Z,12.69
2019-05-11T11:12:22.847Z,12.88
2019-05-11T11:13:39.886Z,13
2019-05-11T11:14:22.796Z,13
2019-05-11T11:16:35.483Z,12.75
2019-05-11T11:18:23.727Z,12.75
2019-05-11T11:20:22.809Z,12.94
2019-05-11T11:22:36.822Z,13.06
2019-05-11T11:24:22.841Z,13
2019-05-11T11:26:22.837Z,13
2019-05-11T11:28:22.853Z,13.19
2019-05-11T11:28:39.820Z,13.13
2019-05-11T11:30:22.823Z,13
2019-05-11T11:32:22.845Z,13.13
2019-05-11T11:34:23.638Z,12.94
2019-05-11T11:36:22.877Z,12.63
2019-05-11T11:38:22.839Z,12.75
2019-05-11T11:40:23.720Z,12.75
2019-05-11T11:42:22.870Z,12.81
2019-05-11T11:43:39.894Z,12.69
2019-05-11T11:44:22.841Z,12.63
2019-05-11T11:46:22.828Z,12.25
2019-05-11T11:48:22.830Z,12.38
2019-05-11T11:50:22.775Z,12.44
2019-05-11T11:52:22.849Z,12.38
2019-05-11T11:54:22.847Z,12.5
2019-05-11T11:56:22.760Z,12.56
2019-05-11T11:58:23.982Z,12.75
2019-05-11T11:58:39.826Z,12.81
2019-05-11T12:00:23.683Z,13.19
2019-05-11T12:02:22.893Z,13.31
2019-05-11T12:04:22.825Z,13.5
2019-05-11T12:06:28.132Z,13.5
2019-05-11T12:08:22.861Z,13.38
2019-05-11T12:10:22.900Z,13.38
2019-05-11T12:12:22.930Z,13.5
2019-05-11T12:13:39.915Z,13.5
2019-05-11T12:14:22.806Z,13.44
2019-05-11T12:16:22.891Z,13.25
2019-05-11T12:18:22.862Z,13.31
2019-05-11T12:20:23.852Z,13.25
2019-05-11T12:22:23.008Z,13.38
2019-05-11T12:24:22.921Z,13.25
2019-05-11T12:26:23.183Z,13.31
2019-05-11T12:28:22.994Z,13.38
2019-05-11T12:28:40.304Z,13.38
2019-05-11T12:30:22.950Z,13.38
2019-05-11T12:32:22.846Z,13.56
2019-05-11T12:34:22.853Z,13.5
2019-05-11T12:36:22.812Z,13.38
2019-05-11T12:38:22.833Z,13.19
2019-05-11T12:40:22.918Z,13.06
2019-05-11T12:42:22.814Z,13.06
2019-05-11T12:43:39.888Z,13.06
2019-05-11T12:44:22.840Z,13.06
2019-05-11T12:46:22.832Z,12.88
2019-05-11T12:48:22.912Z,12.81
2019-05-11T12:50:22.862Z,12.81
2019-05-11T12:52:22.890Z,12.88
2019-05-11T12:54:22.850Z,12.94
2019-05-11T12:56:22.862Z,12.88
2019-05-11T12:58:22.997Z,13
2019-05-11T12:58:39.865Z,12.94
2019-05-11T13:00:22.862Z,12.94
2019-05-11T13:02:22.785Z,13.19
2019-05-11T13:04:22.856Z,13.38
2019-05-11T13:06:22.873Z,13.75
2019-05-11T13:08:23.741Z,14
2019-05-11T13:10:22.892Z,14.06
2019-05-11T13:12:22.849Z,14.06
2019-05-11T13:13:39.883Z,14.06
2019-05-11T13:14:22.845Z,14
2019-05-11T13:16:22.838Z,13.56
2019-05-11T13:18:22.814Z,13.69
2019-05-11T13:20:22.839Z,13.63
2019-05-11T13:22:22.852Z,13.5
2019-05-11T13:24:23.739Z,13.44
2019-05-11T13:26:22.836Z,13.44
2019-05-11T13:28:23.738Z,13.63
2019-05-11T13:28:39.869Z,13.69
2019-05-11T13:30:22.857Z,13.81
2019-05-11T13:32:22.858Z,13.81
2019-05-11T13:34:23.732Z,13.94
2019-05-11T13:36:22.848Z,14.19
2019-05-11T13:38:22.879Z,14
2019-05-11T13:40:22.855Z,14.06
2019-05-11T13:42:23.330Z,14.13
2019-05-11T13:43:39.888Z,14.31
2019-05-11T13:44:22.974Z,14.31
2019-05-11T13:46:22.857Z,14.5
2019-05-11T13:48:22.892Z,14.56
2019-05-11T13:50:22.858Z,14.63
2019-05-11T13:52:22.817Z,14.75
2019-05-11T13:54:23.799Z,14.75
2019-05-11T13:56:22.865Z,14.88
2019-05-11T13:58:22.863Z,14.88
2019-05-11T13:58:39.880Z,14.75
2019-05-11T14:00:22.853Z,15
2019-05-11T14:02:22.860Z,15.31
2019-05-11T14:04:22.870Z,15.56
2019-05-11T14:06:22.878Z,15.56
2019-05-11T14:08:23.751Z,15.56
2019-05-11T14:10:22.863Z,15.63
2019-05-11T14:12:22.778Z,15.63
2019-05-11T14:13:39.884Z,15.81
2019-05-11T14:14:23.730Z,15.75
2019-05-11T14:16:22.951Z,16
2019-05-11T14:18:22.807Z,15.94
2019-05-11T14:20:22.848Z,16.25
2019-05-11T14:22:22.866Z,16
2019-05-11T14:24:22.860Z,15.75
2019-05-11T14:26:23.747Z,15.88
2019-05-11T14:28:22.875Z,15.81
2019-05-11T14:28:39.847Z,15.81
2019-05-11T14:30:22.844Z,15.94
2019-05-11T14:32:22.938Z,15.88
2019-05-11T14:34:22.858Z,16.19
2019-05-11T14:36:22.813Z,16.19
2019-05-11T14:38:22.851Z,16.13
2019-05-11T14:40:22.877Z,16.06
2019-05-11T14:42:22.814Z,15.88
2019-05-11T14:43:39.884Z,15.63
2019-05-11T14:44:22.853Z,15.69
2019-05-11T14:46:22.866Z,15.88
2019-05-11T14:48:26.810Z,15.81
2019-05-11T14:50:22.870Z,15.81
2019-05-11T14:52:22.855Z,15.94
2019-05-11T14:54:22.845Z,16.25
2019-05-11T14:56:22.769Z,16.19
2019-05-11T14:58:22.844Z,16.31
2019-05-11T14:58:39.859Z,16.25
2019-05-11T15:00:22.822Z,16.44
2019-05-11T15:02:22.914Z,16.94
2019-05-11T15:04:22.845Z,16.56
2019-05-11T15:06:22.896Z,16.94
2019-05-11T15:08:22.859Z,16.69
2019-05-11T15:10:22.855Z,16.38
2019-05-11T15:12:22.869Z,16.25
2019-05-11T15:13:39.868Z,16.5
2019-05-11T15:14:22.952Z,16.44
2019-05-11T15:16:22.806Z,16.5
2019-05-11T15:18:35.146Z,16.38
2019-05-11T15:20:22.858Z,16.81
2019-05-11T15:22:22.877Z,16.69
2019-05-11T15:24:22.853Z,16.94
2019-05-11T15:26:22.857Z,16.44
2019-05-11T15:28:22.862Z,16.75
2019-05-11T15:28:39.867Z,16.75
2019-05-11T15:30:23.850Z,16.25
2019-05-11T15:32:22.938Z,15.88
2019-05-11T15:34:22.857Z,15.25
2019-05-11T15:36:22.863Z,15.5
2019-05-11T15:38:22.869Z,15.69
2019-05-11T15:40:22.874Z,15.56
2019-05-11T15:42:22.846Z,15.94
2019-05-11T15:43:39.903Z,15.75
2019-05-11T15:44:22.819Z,16.13
2019-05-11T15:46:22.803Z,16.5
2019-05-11T15:48:22.975Z,16.31
2019-05-11T15:50:23.643Z,16.44
2019-05-11T15:52:22.962Z,16.25
2019-05-11T15:54:22.846Z,16.38
2019-05-11T15:56:23.010Z,16.56
2019-05-11T15:58:22.853Z,16.31
2019-05-11T15:58:39.858Z,16.31
2019-05-11T16:00:22.911Z,15.81
2019-05-11T16:02:22.805Z,15.44
2019-05-11T16:04:22.859Z,15.63
2019-05-11T16:06:22.831Z,15.75
2019-05-11T16:08:23.732Z,15.06
2019-05-11T16:10:22.853Z,14.75
2019-05-11T16:12:22.858Z,14.69
2019-05-11T16:13:39.891Z,14.5
2019-05-11T16:14:22.851Z,14.25
2019-05-11T16:16:22.869Z,14.06
2019-05-11T16:18:22.836Z,14
2019-05-11T16:20:22.818Z,14.13
2019-05-11T16:22:22.816Z,13.81
2019-05-11T16:24:22.843Z,13.63
2019-05-11T16:26:22.884Z,13.75
2019-05-11T16:28:22.846Z,13.69
2019-05-11T16:28:39.868Z,13.69
2019-05-11T16:30:22.847Z,13.81
2019-05-11T16:32:23.743Z,13.75
2019-05-11T16:34:22.860Z,13.75
2019-05-11T16:36:22.868Z,13.69
2019-05-11T16:38:22.865Z,13.63
2019-05-11T16:40:22.855Z,13.5
2019-05-11T16:42:22.877Z,13.75
2019-05-11T16:43:39.888Z,13.69
2019-05-11T16:44:23.750Z,13.75
2019-05-11T16:46:22.871Z,13.81
2019-05-11T16:48:22.849Z,13.88
2019-05-11T16:50:22.852Z,13.69
2019-05-11T16:52:22.806Z,14.06
2019-05-11T16:54:23.738Z,14.31
2019-05-11T16:56:22.874Z,14.69
2019-05-11T16:58:22.815Z,14.5
2019-05-11T16:58:41.013Z,14.44
2019-05-11T17:00:22.781Z,14.56
2019-05-11T17:02:22.869Z,14.13
2019-05-11T17:04:22.868Z,13.81
2019-05-11T17:06:22.853Z,13.94
2019-05-11T17:08:22.863Z,13.63
2019-05-11T17:10:22.860Z,13.56
2019-05-11T17:12:23.660Z,13.44
2019-05-11T17:13:39.806Z,13.38
2019-05-11T17:14:22.790Z,13.44
2019-05-11T17:16:22.830Z,13.44
2019-05-11T17:18:22.861Z,13.44
2019-05-11T17:20:22.844Z,13.31
2019-05-11T17:22:22.892Z,13.56
2019-05-11T17:24:22.858Z,13.81
2019-05-11T17:26:22.952Z,13.63
2019-05-11T17:28:22.854Z,13.56
2019-05-11T17:28:39.875Z,13.56
2019-05-11T17:30:22.862Z,13.56
2019-05-11T17:32:22.860Z,13.56
2019-05-11T17:34:22.871Z,13.44
2019-05-11T17:36:22.864Z,13.38
2019-05-11T17:38:22.870Z,13.69
2019-05-11T17:40:23.447Z,13.94
2019-05-11T17:42:22.870Z,14.13
2019-05-11T17:43:39.835Z,13.94
2019-05-11T17:44:22.873Z,14
2019-05-11T17:46:22.876Z,14.13
2019-05-11T17:48:23.720Z,14.13
2019-05-11T17:50:22.919Z,14.06
2019-05-11T17:52:22.857Z,14.31
2019-05-11T17:54:22.813Z,14.25
2019-05-11T17:56:22.884Z,14.19
2019-05-11T17:58:22.852Z,14.25
2019-05-11T17:58:39.815Z,14.31
2019-05-11T18:00:22.859Z,14.31
2019-05-11T18:02:22.815Z,14.31
2019-05-11T18:04:22.872Z,14.19
2019-05-11T18:06:22.878Z,14.31
2019-05-11T18:08:22.900Z,14.19
2019-05-11T18:10:22.861Z,14.25
2019-05-11T18:12:22.806Z,14.19
2019-05-11T18:13:39.952Z,14.06
2019-05-11T18:14:22.867Z,14
2019-05-11T18:16:22.862Z,14
2019-05-11T18:18:24.105Z,14.06
2019-05-11T18:20:23.065Z,14
2019-05-11T18:22:22.785Z,13.81
2019-05-11T18:24:22.866Z,13.75
2019-05-11T18:26:22.932Z,13.75
2019-05-11T18:28:22.866Z,13.75
2019-05-11T18:28:39.850Z,13.75
2019-05-11T18:30:22.997Z,13.63
2019-05-11T18:32:22.889Z,13.44
2019-05-11T18:34:22.978Z,13.25
2019-05-11T18:36:22.885Z,13.19
2019-05-11T18:38:22.941Z,13.19
2019-05-11T18:40:22.844Z,13
2019-05-11T18:42:22.865Z,12.94
2019-05-11T18:43:39.973Z,12.88
2019-05-11T18:44:22.854Z,12.94
2019-05-11T18:46:22.859Z,12.81
2019-05-11T18:48:22.872Z,12.75
2019-05-11T18:50:30.294Z,12.69
2019-05-11T18:52:22.851Z,12.63
2019-05-11T18:54:22.862Z,12.5
2019-05-11T18:56:22.855Z,12.38
2019-05-11T18:58:23.771Z,12.31
2019-05-11T18:58:40.763Z,12.31
2019-05-11T19:00:22.857Z,12.25
2019-05-11T19:02:22.851Z,12.25
2019-05-11T19:04:22.813Z,12.19
2019-05-11T19:06:22.863Z,12.13
2019-05-11T19:08:22.769Z,12.06
2019-05-11T19:10:22.863Z,12.06
2019-05-11T19:12:22.917Z,11.94
2019-05-11T19:13:39.991Z,11.81
2019-05-11T19:14:22.762Z,11.81
2019-05-11T19:16:22.736Z,11.75
2019-05-11T19:18:22.730Z,11.69
2019-05-11T19:20:24.613Z,11.63
2019-05-11T19:22:22.865Z,11.56
2019-05-11T19:24:22.868Z,11.5
2019-05-11T19:26:22.819Z,11.44
2019-05-11T19:28:22.873Z,11.44
2019-05-11T19:28:39.857Z,11.38
2019-05-11T19:30:22.817Z,11.38
2019-05-11T19:32:22.876Z,11.31
2019-05-11T19:34:22.861Z,11.25
2019-05-11T19:36:22.862Z,11.25
2019-05-11T19:38:22.870Z,11.19
2019-05-11T19:40:24.636Z,11.13
2019-05-11T19:42:22.847Z,11.06
2019-05-11T19:43:39.893Z,11.06
2019-05-11T19:44:22.859Z,11
2019-05-11T19:46:22.864Z,11
2019-05-11T19:48:22.865Z,10.94
2019-05-11T19:50:22.850Z,10.88
2019-05-11T19:52:22.888Z,10.81
2019-05-11T19:54:22.820Z,10.75
2019-05-11T19:56:22.855Z,10.75
2019-05-11T19:58:22.854Z,10.69
2019-05-11T19:58:39.875Z,10.69
2019-05-11T20:00:22.841Z,10.69
2019-05-11T20:02:22.883Z,10.56
2019-05-11T20:04:22.790Z,10.5
2019-05-11T20:06:22.842Z,10.44
2019-05-11T20:08:22.865Z,10.38
2019-05-11T20:10:22.862Z,10.31
2019-05-11T20:12:22.739Z,10.31
2019-05-11T20:13:39.800Z,10.31
2019-05-11T20:14:22.910Z,10.25
2019-05-11T20:16:22.855Z,10.25
2019-05-11T20:18:22.888Z,10.25
2019-05-11T20:20:22.881Z,10.25
2019-05-11T20:22:22.895Z,10.19
2019-05-11T20:24:25.082Z,10.19
2019-05-11T20:26:22.865Z,10.13
2019-05-11T20:28:22.862Z,10.06
2019-05-11T20:28:39.863Z,10.06
2019-05-11T20:30:22.846Z,10.06
2019-05-11T20:32:22.814Z,10
2019-05-11T20:34:22.837Z,9.94
2019-05-11T20:36:22.872Z,9.88
2019-05-11T20:38:22.821Z,9.88
2019-05-11T20:40:22.814Z,9.88
2019-05-11T20:42:22.873Z,9.81
2019-05-11T20:43:39.976Z,9.81
2019-05-11T20:44:22.796Z,9.81
2019-05-11T20:46:22.856Z,9.75
2019-05-11T20:48:22.950Z,9.69
2019-05-11T20:50:22.838Z,9.69
2019-05-11T20:52:23.641Z,9.63
2019-05-11T20:54:22.891Z,9.63
2019-05-11T20:56:22.884Z,9.63
2019-05-11T20:58:22.874Z,9.63
2019-05-11T20:58:39.736Z,9.56
2019-05-11T21:00:22.871Z,9.56
2019-05-11T21:02:22.858Z,9.44
2019-05-11T21:04:22.876Z,9.44
2019-05-11T21:06:22.868Z,9.38
2019-05-11T21:08:22.880Z,9.38
2019-05-11T21:10:22.867Z,9.31
2019-05-11T21:12:22.860Z,9.31
2019-05-11T21:13:39.889Z,9.19
2019-05-11T21:14:22.812Z,9.19
2019-05-11T21:16:22.874Z,9.19
2019-05-11T21:18:22.814Z,9.19
2019-05-11T21:20:22.809Z,9.19
2019-05-11T21:22:22.833Z,9.19
2019-05-11T21:24:22.886Z,9.13
2019-05-11T21:26:22.861Z,9.06
2019-05-11T21:28:23.650Z,9
2019-05-11T21:28:39.830Z,9
2019-05-11T21:30:22.874Z,9
2019-05-11T21:32:22.866Z,8.94
2019-05-11T21:34:22.867Z,8.88
2019-05-11T21:36:22.868Z,8.81
2019-05-11T21:38:24.615Z,8.75
2019-05-11T21:40:22.807Z,8.69
2019-05-11T21:42:22.927Z,8.69
2019-05-11T21:43:39.876Z,8.63
2019-05-11T21:44:22.850Z,8.63
2019-05-11T21:46:22.863Z,8.56
2019-05-11T21:48:22.875Z,8.56
2019-05-11T21:50:22.871Z,8.5
2019-05-11T21:52:22.854Z,8.44
2019-05-11T21:54:22.950Z,8.44
2019-05-11T21:56:22.855Z,8.38
2019-05-11T21:58:22.856Z,8.31
2019-05-11T21:58:39.948Z,8.31
2019-05-11T22:00:22.852Z,8.31
2019-05-11T22:02:22.862Z,8.25
2019-05-11T22:04:22.801Z,8.25
2019-05-11T22:06:22.852Z,8.25
2019-05-11T22:08:22.854Z,8.25
2019-05-11T22:10:22.816Z,8.19
2019-05-11T22:12:22.858Z,8.13
2019-05-11T22:13:40.060Z,8.06
2019-05-11T22:14:22.732Z,8.06
2019-05-11T22:16:22.809Z,8.06
2019-05-11T22:18:30.751Z,8.06
2019-05-11T22:20:22.871Z,8
2019-05-11T22:22:25.317Z,7.94
2019-05-11T22:24:22.859Z,7.94
2019-05-11T22:26:22.851Z,7.81
2019-05-11T22:28:22.854Z,7.81
2019-05-11T22:28:39.871Z,7.81
2019-05-11T22:30:22.885Z,7.75
2019-05-11T22:32:22.865Z,7.75
2019-05-11T22:34:22.802Z,7.75
2019-05-11T22:36:22.934Z,7.69
2019-05-11T22:38:22.857Z,7.69
2019-05-11T22:40:22.914Z,7.63
2019-05-11T22:42:22.783Z,7.63
2019-05-11T22:43:39.919Z,7.56
2019-05-11T22:44:23.696Z,7.56
2019-05-11T22:46:22.859Z,7.5
2019-05-11T22:48:22.889Z,7.44
2019-05-11T22:50:22.846Z,7.38
2019-05-11T22:52:33.683Z,7.31
2019-05-11T22:54:22.848Z,7.31
2019-05-11T22:56:22.876Z,7.25
2019-05-11T22:58:22.872Z,7.31
2019-05-11T22:58:39.893Z,7.25
2019-05-11T23:00:22.862Z,7.25
2019-05-11T23:02:22.877Z,7.19
2019-05-11T23:04:22.863Z,7.19
2019-05-11T23:06:22.856Z,7.19
2019-05-11T23:08:22.845Z,7.13
2019-05-11T23:10:22.804Z,7.06
2019-05-11T23:12:22.845Z,7
2019-05-11T23:13:39.898Z,7
2019-05-11T23:14:22.852Z,7